Terminal Aerodrome Forecast
Issued by NWS Northern Indiana

Home | Current Version | Previous Version | Text Only | Print | Product List | Glossary Off
Versions: 1 2 3 4 5 6 7 8 9 10 11 12 13 14

000
FTUS43 KIWX 032200 AAA
TAFFWA
TAF AMD
KFWA 032231Z 0323/0418 26016G24KT 3SM -DZ BR OVC006
     FM040500 27013KT P6SM OVC012
     FM041400 30010KT P6SM BKN020=

USA.gov is the U.S. government's official web portal to all federal, state and local government web resources and services.